sensor_id;sensor_type;location;lat;lon;timestamp;P1;durP1;ratioP1;P2;durP2;ratioP2
3916;SDS011;1973;50.518;7.318;2023-03-03T00:00:01;12.80;;;8.40;;
3916;SDS011;1973;50.518;7.318;2023-03-03T00:02:28;10.80;;;7.63;;
3916;SDS011;1973;50.518;7.318;2023-03-03T00:04:55;11.87;;;7.17;;
3916;SDS011;1973;50.518;7.318;2023-03-03T00:07:21;10.00;;;7.90;;
3916;SDS011;1973;50.518;7.318;2023-03-03T00:09:48;13.40;;;7.53;;
3916;SDS011;1973;50.518;7.318;2023-03-03T00:12:23;10.83;;;7.57;;
3916;SDS011;1973;50.518;7.318;2023-03-03T00:14:51;14.17;;;9.10;;
3916;SDS011;1973;50.518;7.318;2023-03-03T00:17:22;15.53;;;8.93;;
3916;SDS011;1973;50.518;7.318;2023-03-03T00:19:51;9.63;;;6.90;;
3916;SDS011;1973;50.518;7.318;2023-03-03T00:22:24;12.50;;;9.00;;
3916;SDS011;1973;50.518;7.318;2023-03-03T00:24:54;10.97;;;7.17;;
3916;SDS011;1973;50.518;7.318;2023-03-03T00:29:54;10.17;;;7.17;;
3916;SDS011;1973;50.518;7.318;2023-03-03T00:32:44;12.57;;;8.97;;
3916;SDS011;1973;50.518;7.318;2023-03-03T00:35:21;9.67;;;7.37;;
3916;SDS011;1973;50.518;7.318;2023-03-03T00:37:56;10.10;;;7.63;;
3916;SDS011;1973;50.518;7.318;2023-03-03T00:40:32;10.70;;;7.30;;
3916;SDS011;1973;50.518;7.318;2023-03-03T00:43:01;10.57;;;7.50;;
3916;SDS011;1973;50.518;7.318;2023-03-03T00:45:57;12.10;;;7.40;;
3916;SDS011;1973;50.518;7.318;2023-03-03T00:53:47;11.70;;;8.13;;
3916;SDS011;1973;50.518;7.318;2023-03-03T00:56:14;12.50;;;7.50;;
3916;SDS011;1973;50.518;7.318;2023-03-03T00:58:41;11.53;;;8.47;;
3916;SDS011;1973;50.518;7.318;2023-03-03T01:01:11;14.23;;;8.50;;
3916;SDS011;1973;50.518;7.318;2023-03-03T01:03:37;11.20;;;8.37;;
3916;SDS011;1973;50.518;7.318;2023-03-03T01:06:04;12.63;;;7.97;;
3916;SDS011;1973;50.518;7.318;2023-03-03T01:08:31;8.80;;;7.17;;
3916;SDS011;1973;50.518;7.318;2023-03-03T01:10:59;10.80;;;7.60;;
3916;SDS011;1973;50.518;7.318;2023-03-03T01:13:31;11.93;;;7.33;;
3916;SDS011;1973;50.518;7.318;2023-03-03T01:16:02;10.67;;;7.10;;
3916;SDS011;1973;50.518;7.318;2023-03-03T01:18:29;12.37;;;8.37;;
3916;SDS011;1973;50.518;7.318;2023-03-03T01:20:56;12.00;;;7.27;;
3916;SDS011;1973;50.518;7.318;2023-03-03T01:23:23;11.20;;;7.20;;
3916;SDS011;1973;50.518;7.318;2023-03-03T01:25:50;11.23;;;7.47;;
3916;SDS011;1973;50.518;7.318;2023-03-03T01:28:16;10.43;;;7.87;;
3916;SDS011;1973;50.518;7.318;2023-03-03T01:30:43;11.53;;;8.40;;
3916;SDS011;1973;50.518;7.318;2023-03-03T01:33:09;10.47;;;7.17;;
3916;SDS011;1973;50.518;7.318;2023-03-03T01:35:36;14.20;;;8.23;;
3916;SDS011;1973;50.518;7.318;2023-03-03T01:38:02;14.93;;;8.77;;
3916;SDS011;1973;50.518;7.318;2023-03-03T01:40:29;9.63;;;7.53;;
3916;SDS011;1973;50.518;7.318;2023-03-03T01:42:58;10.83;;;7.27;;
3916;SDS011;1973;50.518;7.318;2023-03-03T01:45:27;14.60;;;8.10;;
3916;SDS011;1973;50.518;7.318;2023-03-03T01:48:05;10.23;;;7.63;;
3916;SDS011;1973;50.518;7.318;2023-03-03T01:50:41;12.20;;;8.23;;
3916;SDS011;1973;50.518;7.318;2023-03-03T01:53:14;13.83;;;8.10;;
3916;SDS011;1973;50.518;7.318;2023-03-03T01:55:44;11.27;;;8.67;;
3916;SDS011;1973;50.518;7.318;2023-03-03T01:58:18;10.30;;;7.47;;
3916;SDS011;1973;50.518;7.318;2023-03-03T02:00:52;12.10;;;8.17;;
3916;SDS011;1973;50.518;7.318;2023-03-03T02:03:22;11.90;;;8.60;;
3916;SDS011;1973;50.518;7.318;2023-03-03T02:05:51;15.60;;;8.93;;
3916;SDS011;1973;50.518;7.318;2023-03-03T02:08:20;12.50;;;8.10;;
3916;SDS011;1973;50.518;7.318;2023-03-03T02:10:52;13.60;;;8.23;;
3916;SDS011;1973;50.518;7.318;2023-03-03T02:13:20;12.50;;;8.70;;
3916;SDS011;1973;50.518;7.318;2023-03-03T02:15:46;13.40;;;8.20;;
3916;SDS011;1973;50.518;7.318;2023-03-03T02:18:14;14.93;;;8.30;;
3916;SDS011;1973;50.518;7.318;2023-03-03T02:20:57;10.43;;;7.20;;
3916;SDS011;1973;50.518;7.318;2023-03-03T02:23:39;10.40;;;7.50;;
3916;SDS011;1973;50.518;7.318;2023-03-03T02:26:16;12.80;;;7.57;;
3916;SDS011;1973;50.518;7.318;2023-03-03T02:28:48;12.83;;;7.63;;
3916;SDS011;1973;50.518;7.318;2023-03-03T02:31:16;10.63;;;7.93;;
3916;SDS011;1973;50.518;7.318;2023-03-03T02:33:46;9.60;;;7.10;;
3916;SDS011;1973;50.518;7.318;2023-03-03T02:36:18;12.67;;;7.80;;
3916;SDS011;1973;50.518;7.318;2023-03-03T02:38:48;11.47;;;7.70;;
3916;SDS011;1973;50.518;7.318;2023-03-03T02:44:13;11.03;;;8.00;;
3916;SDS011;1973;50.518;7.318;2023-03-03T02:46:43;11.70;;;8.10;;
3916;SDS011;1973;50.518;7.318;2023-03-03T02:49:13;13.67;;;8.47;;
3916;SDS011;1973;50.518;7.318;2023-03-03T02:51:42;11.37;;;8.20;;
3916;SDS011;1973;50.518;7.318;2023-03-03T02:54:09;16.20;;;9.13;;
3916;SDS011;1973;50.518;7.318;2023-03-03T02:56:37;14.67;;;8.13;;
3916;SDS011;1973;50.518;7.318;2023-03-03T02:59:04;13.67;;;8.70;;
3916;SDS011;1973;50.518;7.318;2023-03-03T03:01:31;14.07;;;8.80;;
3916;SDS011;1973;50.518;7.318;2023-03-03T03:04:12;12.73;;;8.50;;
3916;SDS011;1973;50.518;7.318;2023-03-03T03:06:40;15.03;;;9.20;;
3916;SDS011;1973;50.518;7.318;2023-03-03T03:09:08;13.63;;;8.03;;
3916;SDS011;1973;50.518;7.318;2023-03-03T03:11:36;13.40;;;8.00;;
3916;SDS011;1973;50.518;7.318;2023-03-03T03:14:04;14.47;;;8.70;;
3916;SDS011;1973;50.518;7.318;2023-03-03T03:16:32;15.10;;;9.13;;
3916;SDS011;1973;50.518;7.318;2023-03-03T03:18:59;10.37;;;8.23;;
3916;SDS011;1973;50.518;7.318;2023-03-03T03:21:27;13.83;;;9.40;;
3916;SDS011;1973;50.518;7.318;2023-03-03T03:23:54;15.07;;;10.07;;
3916;SDS011;1973;50.518;7.318;2023-03-03T03:26:20;12.90;;;8.47;;
3916;SDS011;1973;50.518;7.318;2023-03-03T03:28:48;12.33;;;9.20;;
3916;SDS011;1973;50.518;7.318;2023-03-03T03:31:16;14.07;;;9.87;;
3916;SDS011;1973;50.518;7.318;2023-03-03T03:33:43;11.63;;;8.80;;
3916;SDS011;1973;50.518;7.318;2023-03-03T03:36:10;12.10;;;8.90;;
3916;SDS011;1973;50.518;7.318;2023-03-03T03:38:37;13.77;;;8.80;;
3916;SDS011;1973;50.518;7.318;2023-03-03T03:41:05;14.10;;;10.20;;
3916;SDS011;1973;50.518;7.318;2023-03-03T03:43:32;16.77;;;9.90;;
3916;SDS011;1973;50.518;7.318;2023-03-03T03:45:59;13.07;;;9.53;;
3916;SDS011;1973;50.518;7.318;2023-03-03T03:48:27;14.13;;;10.70;;
3916;SDS011;1973;50.518;7.318;2023-03-03T03:50:53;14.37;;;9.87;;
3916;SDS011;1973;50.518;7.318;2023-03-03T03:53:20;13.57;;;9.90;;
3916;SDS011;1973;50.518;7.318;2023-03-03T03:55:46;15.60;;;10.00;;
3916;SDS011;1973;50.518;7.318;2023-03-03T03:58:13;18.50;;;11.00;;
3916;SDS011;1973;50.518;7.318;2023-03-03T04:00:40;15.03;;;10.53;;
3916;SDS011;1973;50.518;7.318;2023-03-03T04:03:08;18.27;;;12.03;;
3916;SDS011;1973;50.518;7.318;2023-03-03T04:05:35;13.60;;;10.40;;
3916;SDS011;1973;50.518;7.318;2023-03-03T04:08:01;13.53;;;9.33;;
3916;SDS011;1973;50.518;7.318;2023-03-03T04:10:28;16.50;;;11.33;;
3916;SDS011;1973;50.518;7.318;2023-03-03T04:12:55;13.40;;;10.07;;
3916;SDS011;1973;50.518;7.318;2023-03-03T04:15:21;23.87;;;14.00;;
3916;SDS011;1973;50.518;7.318;2023-03-03T04:17:48;15.50;;;11.10;;
3916;SDS011;1973;50.518;7.318;2023-03-03T04:20:15;18.10;;;12.53;;
3916;SDS011;1973;50.518;7.318;2023-03-03T04:22:41;26.17;;;17.10;;
3916;SDS011;1973;50.518;7.318;2023-03-03T04:25:09;22.73;;;13.40;;
3916;SDS011;1973;50.518;7.318;2023-03-03T04:27:39;21.13;;;14.47;;
3916;SDS011;1973;50.518;7.318;2023-03-03T04:30:05;19.97;;;14.30;;
3916;SDS011;1973;50.518;7.318;2023-03-03T04:32:33;21.13;;;13.03;;
3916;SDS011;1973;50.518;7.318;2023-03-03T04:35:00;20.87;;;13.17;;
3916;SDS011;1973;50.518;7.318;2023-03-03T04:37:33;37.53;;;20.63;;
3916;SDS011;1973;50.518;7.318;2023-03-03T04:40:01;47.60;;;26.20;;
3916;SDS011;1973;50.518;7.318;2023-03-03T04:42:27;43.20;;;25.40;;
3916;SDS011;1973;50.518;7.318;2023-03-03T04:44:54;49.63;;;28.30;;
3916;SDS011;1973;50.518;7.318;2023-03-03T04:47:20;57.33;;;31.40;;
3916;SDS011;1973;50.518;7.318;2023-03-03T04:49:47;60.70;;;32.90;;
3916;SDS011;1973;50.518;7.318;2023-03-03T04:52:13;59.00;;;32.17;;
3916;SDS011;1973;50.518;7.318;2023-03-03T04:54:40;62.90;;;32.63;;
3916;SDS011;1973;50.518;7.318;2023-03-03T04:57:06;63.40;;;33.17;;
3916;SDS011;1973;50.518;7.318;2023-03-03T04:59:34;64.23;;;33.40;;
3916;SDS011;1973;50.518;7.318;2023-03-03T05:02:01;60.07;;;31.60;;
3916;SDS011;1973;50.518;7.318;2023-03-03T05:04:29;65.13;;;32.67;;
3916;SDS011;1973;50.518;7.318;2023-03-03T05:06:56;58.87;;;31.60;;
3916;SDS011;1973;50.518;7.318;2023-03-03T05:09:23;56.67;;;32.57;;
3916;SDS011;1973;50.518;7.318;2023-03-03T05:11:50;57.70;;;33.10;;
3916;SDS011;1973;50.518;7.318;2023-03-03T05:14:16;69.00;;;34.30;;
3916;SDS011;1973;50.518;7.318;2023-03-03T05:16:43;60.57;;;32.47;;
3916;SDS011;1973;50.518;7.318;2023-03-03T05:19:10;67.30;;;33.03;;
3916;SDS011;1973;50.518;7.318;2023-03-03T05:21:36;64.73;;;35.07;;
3916;SDS011;1973;50.518;7.318;2023-03-03T05:24:08;58.80;;;33.17;;
3916;SDS011;1973;50.518;7.318;2023-03-03T05:26:35;64.37;;;34.20;;
3916;SDS011;1973;50.518;7.318;2023-03-03T05:29:01;57.03;;;31.33;;
3916;SDS011;1973;50.518;7.318;2023-03-03T05:31:28;71.97;;;37.90;;
3916;SDS011;1973;50.518;7.318;2023-03-03T05:33:55;69.33;;;35.97;;
3916;SDS011;1973;50.518;7.318;2023-03-03T05:36:21;61.77;;;33.90;;
3916;SDS011;1973;50.518;7.318;2023-03-03T05:38:48;66.83;;;34.93;;
3916;SDS011;1973;50.518;7.318;2023-03-03T05:41:14;67.97;;;37.20;;
3916;SDS011;1973;50.518;7.318;2023-03-03T05:43:41;65.17;;;35.97;;
3916;SDS011;1973;50.518;7.318;2023-03-03T05:46:08;67.80;;;37.00;;
3916;SDS011;1973;50.518;7.318;2023-03-03T05:48:35;64.57;;;36.00;;
3916;SDS011;1973;50.518;7.318;2023-03-03T05:51:01;62.33;;;33.20;;
3916;SDS011;1973;50.518;7.318;2023-03-03T05:53:28;59.47;;;33.70;;
3916;SDS011;1973;50.518;7.318;2023-03-03T05:55:55;67.20;;;37.43;;
3916;SDS011;1973;50.518;7.318;2023-03-03T05:58:21;67.57;;;36.60;;
3916;SDS011;1973;50.518;7.318;2023-03-03T06:00:48;67.73;;;36.73;;
3916;SDS011;1973;50.518;7.318;2023-03-03T06:03:14;77.07;;;36.30;;
3916;SDS011;1973;50.518;7.318;2023-03-03T06:05:42;68.73;;;34.47;;
3916;SDS011;1973;50.518;7.318;2023-03-03T06:08:08;61.03;;;34.50;;
3916;SDS011;1973;50.518;7.318;2023-03-03T06:10:35;63.20;;;35.50;;
3916;SDS011;1973;50.518;7.318;2023-03-03T06:13:01;62.40;;;34.73;;
3916;SDS011;1973;50.518;7.318;2023-03-03T06:15:28;72.60;;;37.97;;
3916;SDS011;1973;50.518;7.318;2023-03-03T06:17:54;70.10;;;36.37;;
3916;SDS011;1973;50.518;7.318;2023-03-03T06:20:21;62.90;;;34.30;;
3916;SDS011;1973;50.518;7.318;2023-03-03T06:22:47;66.90;;;35.40;;
3916;SDS011;1973;50.518;7.318;2023-03-03T06:25:14;68.90;;;37.07;;
3916;SDS011;1973;50.518;7.318;2023-03-03T06:27:40;60.50;;;33.47;;
3916;SDS011;1973;50.518;7.318;2023-03-03T06:30:07;63.23;;;36.17;;
3916;SDS011;1973;50.518;7.318;2023-03-03T06:32:33;61.10;;;34.30;;
3916;SDS011;1973;50.518;7.318;2023-03-03T06:35:00;67.10;;;36.40;;
3916;SDS011;1973;50.518;7.318;2023-03-03T06:37:26;59.87;;;34.90;;
3916;SDS011;1973;50.518;7.318;2023-03-03T06:39:53;66.20;;;36.17;;
3916;SDS011;1973;50.518;7.318;2023-03-03T06:42:19;66.50;;;35.90;;
3916;SDS011;1973;50.518;7.318;2023-03-03T06:44:46;59.37;;;33.63;;
3916;SDS011;1973;50.518;7.318;2023-03-03T06:47:13;68.77;;;36.23;;
3916;SDS011;1973;50.518;7.318;2023-03-03T06:49:39;69.67;;;37.60;;
3916;SDS011;1973;50.518;7.318;2023-03-03T06:52:13;64.13;;;35.70;;
3916;SDS011;1973;50.518;7.318;2023-03-03T06:54:42;58.30;;;33.87;;
3916;SDS011;1973;50.518;7.318;2023-03-03T06:57:16;58.73;;;34.80;;
3916;SDS011;1973;50.518;7.318;2023-03-03T06:59:48;62.23;;;35.57;;
3916;SDS011;1973;50.518;7.318;2023-03-03T07:02:18;62.20;;;34.50;;
3916;SDS011;1973;50.518;7.318;2023-03-03T07:04:46;66.70;;;34.17;;
3916;SDS011;1973;50.518;7.318;2023-03-03T07:07:20;59.10;;;33.07;;
3916;SDS011;1973;50.518;7.318;2023-03-03T07:09:53;66.83;;;38.70;;
3916;SDS011;1973;50.518;7.318;2023-03-03T07:12:22;62.27;;;35.10;;
3916;SDS011;1973;50.518;7.318;2023-03-03T07:14:52;65.60;;;37.23;;
3916;SDS011;1973;50.518;7.318;2023-03-03T07:17:30;65.33;;;35.80;;
3916;SDS011;1973;50.518;7.318;2023-03-03T07:19:59;52.37;;;31.17;;
3916;SDS011;1973;50.518;7.318;2023-03-03T07:22:27;61.77;;;35.67;;
3916;SDS011;1973;50.518;7.318;2023-03-03T07:24:58;58.77;;;33.93;;
3916;SDS011;1973;50.518;7.318;2023-03-03T07:27:27;60.13;;;32.93;;
3916;SDS011;1973;50.518;7.318;2023-03-03T07:30:38;52.80;;;29.97;;
3916;SDS011;1973;50.518;7.318;2023-03-03T07:32:53;48.53;;;27.63;;
3916;SDS011;1973;50.518;7.318;2023-03-03T07:35:34;50.33;;;29.87;;
3916;SDS011;1973;50.518;7.318;2023-03-03T07:38:28;48.43;;;28.67;;
3916;SDS011;1973;50.518;7.318;2023-03-03T07:41:00;55.03;;;31.00;;
3916;SDS011;1973;50.518;7.318;2023-03-03T07:45:59;51.83;;;30.63;;
3916;SDS011;1973;50.518;7.318;2023-03-03T07:48:38;48.67;;;29.60;;
3916;SDS011;1973;50.518;7.318;2023-03-03T07:51:26;54.90;;;31.37;;
3916;SDS011;1973;50.518;7.318;2023-03-03T07:54:40;50.67;;;29.40;;
3916;SDS011;1973;50.518;7.318;2023-03-03T07:56:57;50.03;;;29.43;;
3916;SDS011;1973;50.518;7.318;2023-03-03T07:59:31;54.50;;;30.93;;
3916;SDS011;1973;50.518;7.318;2023-03-03T08:02:01;50.73;;;28.97;;
3916;SDS011;1973;50.518;7.318;2023-03-03T08:04:38;52.67;;;29.07;;
3916;SDS011;1973;50.518;7.318;2023-03-03T08:07:11;55.80;;;31.70;;
3916;SDS011;1973;50.518;7.318;2023-03-03T08:09:42;54.37;;;31.30;;
3916;SDS011;1973;50.518;7.318;2023-03-03T08:12:20;55.07;;;30.40;;
3916;SDS011;1973;50.518;7.318;2023-03-03T08:15:14;50.93;;;29.27;;
3916;SDS011;1973;50.518;7.318;2023-03-03T08:17:44;50.50;;;28.80;;
3916;SDS011;1973;50.518;7.318;2023-03-03T08:22:59;46.03;;;29.43;;
3916;SDS011;1973;50.518;7.318;2023-03-03T08:25:26;48.03;;;28.80;;
3916;SDS011;1973;50.518;7.318;2023-03-03T08:27:52;52.07;;;29.30;;
3916;SDS011;1973;50.518;7.318;2023-03-03T08:30:19;49.40;;;27.73;;
3916;SDS011;1973;50.518;7.318;2023-03-03T08:32:45;49.37;;;28.27;;
3916;SDS011;1973;50.518;7.318;2023-03-03T08:35:12;56.90;;;31.23;;
3916;SDS011;1973;50.518;7.318;2023-03-03T08:37:38;45.97;;;27.93;;
3916;SDS011;1973;50.518;7.318;2023-03-03T08:40:05;51.40;;;28.90;;
3916;SDS011;1973;50.518;7.318;2023-03-03T08:42:32;49.50;;;28.27;;
3916;SDS011;1973;50.518;7.318;2023-03-03T08:44:58;49.53;;;29.63;;
3916;SDS011;1973;50.518;7.318;2023-03-03T08:47:25;48.07;;;28.00;;
3916;SDS011;1973;50.518;7.318;2023-03-03T08:49:51;49.57;;;28.40;;
3916;SDS011;1973;50.518;7.318;2023-03-03T08:52:19;55.87;;;31.80;;
3916;SDS011;1973;50.518;7.318;2023-03-03T08:54:46;51.27;;;29.40;;
3916;SDS011;1973;50.518;7.318;2023-03-03T08:57:12;49.27;;;28.20;;
3916;SDS011;1973;50.518;7.318;2023-03-03T08:59:39;48.10;;;29.47;;
3916;SDS011;1973;50.518;7.318;2023-03-03T09:02:05;49.17;;;29.10;;
3916;SDS011;1973;50.518;7.318;2023-03-03T09:04:33;52.70;;;28.80;;
3916;SDS011;1973;50.518;7.318;2023-03-03T09:06:59;41.90;;;25.93;;
3916;SDS011;1973;50.518;7.318;2023-03-03T09:09:26;46.33;;;26.70;;
3916;SDS011;1973;50.518;7.318;2023-03-03T09:12:00;49.90;;;28.33;;
3916;SDS011;1973;50.518;7.318;2023-03-03T09:14:53;51.07;;;29.93;;
3916;SDS011;1973;50.518;7.318;2023-03-03T09:17:24;51.07;;;30.80;;
3916;SDS011;1973;50.518;7.318;2023-03-03T09:19:57;49.80;;;28.10;;
3916;SDS011;1973;50.518;7.318;2023-03-03T09:22:25;51.00;;;28.77;;
3916;SDS011;1973;50.518;7.318;2023-03-03T09:24:53;54.47;;;32.17;;
3916;SDS011;1973;50.518;7.318;2023-03-03T09:27:30;52.50;;;30.43;;
3916;SDS011;1973;50.518;7.318;2023-03-03T09:30:11;51.20;;;29.00;;
3916;SDS011;1973;50.518;7.318;2023-03-03T09:32:55;48.57;;;27.90;;
3916;SDS011;1973;50.518;7.318;2023-03-03T09:35:33;51.90;;;30.27;;
3916;SDS011;1973;50.518;7.318;2023-03-03T09:43:46;48.47;;;29.67;;
3916;SDS011;1973;50.518;7.318;2023-03-03T09:52:05;55.90;;;31.07;;
3916;SDS011;1973;50.518;7.318;2023-03-03T10:00:26;54.03;;;31.03;;
3916;SDS011;1973;50.518;7.318;2023-03-03T10:06:00;54.80;;;31.40;;
3916;SDS011;1973;50.518;7.318;2023-03-03T10:08:43;53.20;;;29.90;;
3916;SDS011;1973;50.518;7.318;2023-03-03T10:14:09;54.83;;;31.83;;
3916;SDS011;1973;50.518;7.318;2023-03-03T10:16:51;61.37;;;33.10;;
3916;SDS011;1973;50.518;7.318;2023-03-03T10:20:04;56.40;;;30.50;;
3916;SDS011;1973;50.518;7.318;2023-03-03T10:25:49;59.00;;;30.77;;
3916;SDS011;1973;50.518;7.318;2023-03-03T10:31:36;59.97;;;32.20;;
3916;SDS011;1973;50.518;7.318;2023-03-03T10:37:19;54.83;;;30.80;;
3916;SDS011;1973;50.518;7.318;2023-03-03T10:56:21;53.77;;;31.07;;
3916;SDS011;1973;50.518;7.318;2023-03-03T10:59:42;52.53;;;29.10;;
3916;SDS011;1973;50.518;7.318;2023-03-03T11:02:17;55.37;;;30.97;;
3916;SDS011;1973;50.518;7.318;2023-03-03T11:05:05;53.17;;;30.27;;
3916;SDS011;1973;50.518;7.318;2023-03-03T11:12:50;54.27;;;30.50;;
3916;SDS011;1973;50.518;7.318;2023-03-03T11:15:52;63.67;;;30.43;;
3916;SDS011;1973;50.518;7.318;2023-03-03T11:23:49;52.53;;;31.83;;
3916;SDS011;1973;50.518;7.318;2023-03-03T11:31:41;59.33;;;31.67;;
3916;SDS011;1973;50.518;7.318;2023-03-03T11:34:17;55.40;;;34.47;;
3916;SDS011;1973;50.518;7.318;2023-03-03T11:37:14;61.93;;;33.10;;
3916;SDS011;1973;50.518;7.318;2023-03-03T11:39:48;58.27;;;32.63;;
3916;SDS011;1973;50.518;7.318;2023-03-03T11:45:24;64.00;;;35.67;;
3916;SDS011;1973;50.518;7.318;2023-03-03T11:48:10;52.43;;;31.47;;
3916;SDS011;1973;50.518;7.318;2023-03-03T11:50:44;56.27;;;31.80;;
3916;SDS011;1973;50.518;7.318;2023-03-03T11:53:24;54.80;;;31.03;;
3916;SDS011;1973;50.518;7.318;2023-03-03T11:56:18;53.07;;;30.30;;
3916;SDS011;1973;50.518;7.318;2023-03-03T12:21:37;58.20;;;33.30;;
3916;SDS011;1973;50.518;7.318;2023-03-03T12:26:53;59.97;;;35.60;;
3916;SDS011;1973;50.518;7.318;2023-03-03T12:29:41;54.33;;;32.77;;
3916;SDS011;1973;50.518;7.318;2023-03-03T12:35:05;54.83;;;32.07;;
3916;SDS011;1973;50.518;7.318;2023-03-03T12:40:31;57.93;;;32.57;;
3916;SDS011;1973;50.518;7.318;2023-03-03T12:43:02;53.10;;;34.50;;
3916;SDS011;1973;50.518;7.318;2023-03-03T12:45:54;57.53;;;33.73;;
3916;SDS011;1973;50.518;7.318;2023-03-03T12:48:40;53.47;;;31.40;;
3916;SDS011;1973;50.518;7.318;2023-03-03T12:51:15;54.57;;;32.50;;
3916;SDS011;1973;50.518;7.318;2023-03-03T12:54:20;51.50;;;31.53;;
3916;SDS011;1973;50.518;7.318;2023-03-03T12:57:24;53.80;;;30.60;;
3916;SDS011;1973;50.518;7.318;2023-03-03T13:00:10;56.43;;;32.00;;
3916;SDS011;1973;50.518;7.318;2023-03-03T13:08:25;55.07;;;33.67;;
3916;SDS011;1973;50.518;7.318;2023-03-03T13:11:00;54.23;;;31.30;;
3916;SDS011;1973;50.518;7.318;2023-03-03T13:13:57;56.30;;;34.87;;
3916;SDS011;1973;50.518;7.318;2023-03-03T13:16:57;55.03;;;31.07;;
3916;SDS011;1973;50.518;7.318;2023-03-03T13:19:48;56.33;;;32.40;;
3916;SDS011;1973;50.518;7.318;2023-03-03T13:22:48;57.83;;;33.87;;
3916;SDS011;1973;50.518;7.318;2023-03-03T13:27:55;47.50;;;30.73;;
3916;SDS011;1973;50.518;7.318;2023-03-03T13:30:28;50.93;;;30.33;;
3916;SDS011;1973;50.518;7.318;2023-03-03T13:33:00;51.50;;;31.97;;
3916;SDS011;1973;50.518;7.318;2023-03-03T13:35:50;52.00;;;33.17;;
3916;SDS011;1973;50.518;7.318;2023-03-03T13:43:44;50.00;;;33.13;;
3916;SDS011;1973;50.518;7.318;2023-03-03T13:46:25;55.60;;;34.53;;
3916;SDS011;1973;50.518;7.318;2023-03-03T13:54:42;55.80;;;36.33;;
3916;SDS011;1973;50.518;7.318;2023-03-03T14:07:59;50.73;;;34.10;;
3916;SDS011;1973;50.518;7.318;2023-03-03T14:10:56;52.93;;;31.63;;
3916;SDS011;1973;50.518;7.318;2023-03-03T14:13:33;54.20;;;32.77;;
3916;SDS011;1973;50.518;7.318;2023-03-03T14:16:33;49.53;;;33.90;;
3916;SDS011;1973;50.518;7.318;2023-03-03T14:19:02;46.00;;;32.30;;
3916;SDS011;1973;50.518;7.318;2023-03-03T14:21:37;50.03;;;32.80;;
3916;SDS011;1973;50.518;7.318;2023-03-03T14:24:14;47.37;;;30.13;;
3916;SDS011;1973;50.518;7.318;2023-03-03T14:26:47;48.63;;;31.90;;
3916;SDS011;1973;50.518;7.318;2023-03-03T14:31:54;48.20;;;30.90;;
3916;SDS011;1973;50.518;7.318;2023-03-03T14:34:34;48.43;;;30.70;;
3916;SDS011;1973;50.518;7.318;2023-03-03T14:42:36;43.77;;;27.90;;
3916;SDS011;1973;50.518;7.318;2023-03-03T14:47:56;43.47;;;27.97;;
3916;SDS011;1973;50.518;7.318;2023-03-03T14:50:36;40.07;;;26.97;;
3916;SDS011;1973;50.518;7.318;2023-03-03T14:55:41;42.33;;;26.70;;
3916;SDS011;1973;50.518;7.318;2023-03-03T14:58:26;37.90;;;26.13;;
3916;SDS011;1973;50.518;7.318;2023-03-03T15:01:10;37.93;;;24.67;;
3916;SDS011;1973;50.518;7.318;2023-03-03T15:03:47;36.50;;;24.00;;
3916;SDS011;1973;50.518;7.318;2023-03-03T15:06:28;40.43;;;26.90;;
3916;SDS011;1973;50.518;7.318;2023-03-03T15:09:18;44.03;;;27.70;;
3916;SDS011;1973;50.518;7.318;2023-03-03T15:12:53;41.37;;;26.07;;
3916;SDS011;1973;50.518;7.318;2023-03-03T15:17:34;46.37;;;24.80;;
3916;SDS011;1973;50.518;7.318;2023-03-03T15:26:00;45.33;;;26.37;;
3916;SDS011;1973;50.518;7.318;2023-03-03T15:28:35;43.13;;;25.77;;
3916;SDS011;1973;50.518;7.318;2023-03-03T15:36:17;44.73;;;26.23;;
3916;SDS011;1973;50.518;7.318;2023-03-03T15:41:43;42.37;;;25.13;;
3916;SDS011;1973;50.518;7.318;2023-03-03T15:44:20;50.40;;;29.60;;
3916;SDS011;1973;50.518;7.318;2023-03-03T15:47:04;48.63;;;27.10;;
3916;SDS011;1973;50.518;7.318;2023-03-03T16:03:26;52.93;;;28.63;;
3916;SDS011;1973;50.518;7.318;2023-03-03T16:06:02;48.03;;;26.80;;
3916;SDS011;1973;50.518;7.318;2023-03-03T16:11:23;44.50;;;27.50;;
3916;SDS011;1973;50.518;7.318;2023-03-03T16:19:37;48.20;;;27.97;;
3916;SDS011;1973;50.518;7.318;2023-03-03T16:27:39;54.87;;;31.97;;
3916;SDS011;1973;50.518;7.318;2023-03-03T16:38:55;56.63;;;32.43;;
3916;SDS011;1973;50.518;7.318;2023-03-03T16:41:33;55.77;;;29.90;;
3916;SDS011;1973;50.518;7.318;2023-03-03T16:44:13;61.10;;;35.33;;
3916;SDS011;1973;50.518;7.318;2023-03-03T16:46:48;60.20;;;33.50;;
3916;SDS011;1973;50.518;7.318;2023-03-03T16:52:32;64.90;;;35.50;;
3916;SDS011;1973;50.518;7.318;2023-03-03T16:55:14;61.33;;;33.23;;
3916;SDS011;1973;50.518;7.318;2023-03-03T17:00:28;70.37;;;35.17;;
3916;SDS011;1973;50.518;7.318;2023-03-03T17:03:18;72.00;;;38.40;;
3916;SDS011;1973;50.518;7.318;2023-03-03T17:05:58;67.90;;;35.77;;
3916;SDS011;1973;50.518;7.318;2023-03-03T17:11:34;74.03;;;36.80;;
3916;SDS011;1973;50.518;7.318;2023-03-03T17:14:40;77.73;;;37.33;;
3916;SDS011;1973;50.518;7.318;2023-03-03T17:17:16;79.63;;;40.30;;
3916;SDS011;1973;50.518;7.318;2023-03-03T17:20:00;83.90;;;39.53;;
3916;SDS011;1973;50.518;7.318;2023-03-03T17:30:52;92.23;;;43.87;;
3916;SDS011;1973;50.518;7.318;2023-03-03T17:33:34;95.00;;;44.73;;
3916;SDS011;1973;50.518;7.318;2023-03-03T17:36:14;100.57;;;48.17;;
3916;SDS011;1973;50.518;7.318;2023-03-03T17:38:54;107.20;;;50.70;;
3916;SDS011;1973;50.518;7.318;2023-03-03T17:41:39;101.57;;;48.20;;
3916;SDS011;1973;50.518;7.318;2023-03-03T17:44:27;105.60;;;48.70;;
3916;SDS011;1973;50.518;7.318;2023-03-03T17:47:08;107.27;;;50.60;;
3916;SDS011;1973;50.518;7.318;2023-03-03T17:58:07;101.77;;;48.73;;
3916;SDS011;1973;50.518;7.318;2023-03-03T18:03:59;110.70;;;50.23;;
3916;SDS011;1973;50.518;7.318;2023-03-03T18:09:25;114.87;;;49.50;;
3916;SDS011;1973;50.518;7.318;2023-03-03T18:12:17;101.03;;;46.90;;
3916;SDS011;1973;50.518;7.318;2023-03-03T18:22:44;106.50;;;48.23;;
3916;SDS011;1973;50.518;7.318;2023-03-03T18:25:13;114.03;;;52.57;;
3916;SDS011;1973;50.518;7.318;2023-03-03T18:27:46;103.07;;;48.33;;
3916;SDS011;1973;50.518;7.318;2023-03-03T18:33:12;97.37;;;46.30;;
3916;SDS011;1973;50.518;7.318;2023-03-03T18:35:40;97.90;;;51.03;;
3916;SDS011;1973;50.518;7.318;2023-03-03T18:40:49;114.63;;;53.50;;
3916;SDS011;1973;50.518;7.318;2023-03-03T18:48:47;115.77;;;52.13;;
3916;SDS011;1973;50.518;7.318;2023-03-03T18:51:45;107.13;;;49.53;;
3916;SDS011;1973;50.518;7.318;2023-03-03T18:56:42;107.43;;;50.77;;
3916;SDS011;1973;50.518;7.318;2023-03-03T18:59:09;107.13;;;50.27;;
3916;SDS011;1973;50.518;7.318;2023-03-03T19:04:38;100.87;;;48.33;;
3916;SDS011;1973;50.518;7.318;2023-03-03T19:07:14;110.40;;;50.70;;
3916;SDS011;1973;50.518;7.318;2023-03-03T19:09:53;103.07;;;51.20;;
3916;SDS011;1973;50.518;7.318;2023-03-03T19:12:46;112.97;;;53.90;;
3916;SDS011;1973;50.518;7.318;2023-03-03T19:20:37;97.30;;;50.03;;
3916;SDS011;1973;50.518;7.318;2023-03-03T19:23:07;101.90;;;50.07;;
3916;SDS011;1973;50.518;7.318;2023-03-03T19:25:38;104.90;;;46.80;;
3916;SDS011;1973;50.518;7.318;2023-03-03T19:30:56;92.30;;;47.37;;
3916;SDS011;1973;50.518;7.318;2023-03-03T19:33:39;98.43;;;50.00;;
3916;SDS011;1973;50.518;7.318;2023-03-03T19:36:33;101.43;;;46.20;;
3916;SDS011;1973;50.518;7.318;2023-03-03T19:44:46;92.07;;;44.50;;
3916;SDS011;1973;50.518;7.318;2023-03-03T19:47:25;93.73;;;44.70;;
3916;SDS011;1973;50.518;7.318;2023-03-03T19:53:21;106.20;;;48.20;;
3916;SDS011;1973;50.518;7.318;2023-03-03T19:56:01;101.53;;;46.30;;
3916;SDS011;1973;50.518;7.318;2023-03-03T19:58:58;107.67;;;47.70;;
3916;SDS011;1973;50.518;7.318;2023-03-03T20:01:33;107.47;;;46.47;;
3916;SDS011;1973;50.518;7.318;2023-03-03T20:07:09;99.60;;;46.17;;
3916;SDS011;1973;50.518;7.318;2023-03-03T20:09:44;99.63;;;46.00;;
3916;SDS011;1973;50.518;7.318;2023-03-03T20:15:15;94.00;;;42.27;;
3916;SDS011;1973;50.518;7.318;2023-03-03T20:17:54;108.30;;;46.43;;